createdAt,value
2023-01-23T00:01:42.905Z,0.97
2023-01-23T00:04:13.631Z,1.00
2023-01-23T00:06:43.947Z,0.83
2023-01-23T00:09:12.675Z,0.96
2023-01-23T00:11:41.237Z,0.94
2023-01-23T00:14:12.204Z,0.88
2023-01-23T00:16:40.853Z,0.84
2023-01-23T00:19:11.135Z,0.67
2023-01-23T00:21:39.758Z,0.67
2023-01-23T00:24:13.963Z,0.57
2023-01-23T00:26:42.660Z,0.53
2023-01-23T00:29:10.898Z,0.68
2023-01-23T00:31:40.867Z,0.75
2023-01-23T00:34:14.945Z,0.75
2023-01-23T00:36:45.113Z,0.79
2023-01-23T00:39:19.809Z,0.83
2023-01-23T00:41:49.683Z,0.75
2023-01-23T00:44:19.313Z,0.91
2023-01-23T00:46:47.788Z,0.92
2023-01-23T00:49:17.969Z,1.10
2023-01-23T00:51:46.763Z,0.95
2023-01-23T00:54:16.908Z,0.93
2023-01-23T00:56:45.482Z,1.04
2023-01-23T00:59:13.967Z,1.26
2023-01-23T01:01:42.950Z,1.21
2023-01-23T01:04:12.452Z,1.30
2023-01-23T01:06:41.141Z,1.45
2023-01-23T01:09:09.724Z,1.44
2023-01-23T01:11:40.907Z,1.30
2023-01-23T01:14:09.624Z,1.17
2023-01-23T01:16:38.515Z,1.26
2023-01-23T01:19:07.096Z,1.31
2023-01-23T01:21:36.000Z,1.30
2023-01-23T01:24:04.768Z,1.23
2023-01-23T01:26:33.166Z,1.09
2023-01-23T01:29:03.139Z,0.97
2023-01-23T01:31:31.557Z,1.12
2023-01-23T01:34:00.237Z,0.99
2023-01-23T01:36:28.579Z,0.95
2023-01-23T01:38:57.481Z,1.16
2023-01-23T01:41:26.764Z,1.19
2023-01-23T01:43:57.076Z,1.14
2023-01-23T01:46:28.879Z,0.93
2023-01-23T01:49:10.419Z,1.08
2023-01-23T01:51:45.570Z,1.08
2023-01-23T01:54:22.814Z,1.19
2023-01-23T01:56:58.625Z,1.13
2023-01-23T01:59:32.120Z,1.29
2023-01-23T02:02:09.738Z,1.41
2023-01-23T02:04:43.906Z,1.50
2023-01-23T02:07:20.111Z,1.31
2023-01-23T02:09:52.186Z,1.28
2023-01-23T02:12:20.831Z,1.16
2023-01-23T02:14:49.147Z,1.28
2023-01-23T02:17:19.654Z,1.08
2023-01-23T02:20:00.619Z,1.25
2023-01-23T02:22:41.772Z,1.36
2023-01-23T02:25:19.000Z,1.39
2023-01-23T02:27:49.142Z,1.27
2023-01-23T02:30:19.625Z,1.04
2023-01-23T02:32:49.142Z,1.08
2023-01-23T02:35:26.313Z,1.25
2023-01-23T02:38:03.038Z,1.31
2023-01-23T02:40:34.218Z,1.17
2023-01-23T02:43:05.900Z,1.07
2023-01-23T02:45:36.084Z,0.94
2023-01-23T02:48:06.276Z,0.94
2023-01-23T02:50:34.933Z,0.81
2023-01-23T02:53:03.568Z,0.76
2023-01-23T02:55:33.160Z,0.76
2023-01-23T02:58:17.825Z,0.76
2023-01-23T03:00:46.871Z,0.79
2023-01-23T03:03:15.950Z,0.74
2023-01-23T03:05:44.423Z,0.76
2023-01-23T03:08:13.066Z,0.85
2023-01-23T03:10:41.353Z,0.87
2023-01-23T03:13:12.092Z,0.82
2023-01-23T03:15:42.106Z,0.84
2023-01-23T03:18:10.687Z,0.90
2023-01-23T03:20:43.186Z,0.99
2023-01-23T03:23:12.871Z,1.06
2023-01-23T03:25:44.913Z,1.17
2023-01-23T03:28:28.879Z,1.27
2023-01-23T03:30:57.550Z,1.28
2023-01-23T03:33:26.354Z,1.19
2023-01-23T03:35:54.759Z,1.39
2023-01-23T03:38:23.782Z,1.44
2023-01-23T03:41:09.800Z,1.44
2023-01-23T03:43:39.875Z,1.50
2023-01-23T03:46:08.378Z,1.34
2023-01-23T03:48:37.570Z,1.30
2023-01-23T03:51:06.518Z,1.01
2023-01-23T03:53:35.483Z,1.18
2023-01-23T03:56:04.523Z,1.25
2023-01-23T03:58:33.095Z,1.10
2023-01-23T04:01:06.249Z,0.86
2023-01-23T04:03:37.724Z,0.85
2023-01-23T04:06:07.115Z,1.03
2023-01-23T04:08:35.838Z,0.99
2023-01-23T04:11:07.135Z,0.93
2023-01-23T04:13:35.338Z,1.00
2023-01-23T04:16:07.524Z,0.97
2023-01-23T04:18:36.809Z,0.93
2023-01-23T04:21:05.758Z,1.00
2023-01-23T04:23:35.577Z,1.09
2023-01-23T04:26:05.020Z,1.12
2023-01-23T04:28:34.412Z,1.07
2023-01-23T04:31:05.003Z,1.10
2023-01-23T04:33:35.837Z,1.25
2023-01-23T04:36:08.270Z,1.22
2023-01-23T04:38:37.302Z,1.24
2023-01-23T04:41:23.830Z,1.19
2023-01-23T04:44:19.807Z,1.27
2023-01-23T04:47:10.415Z,1.16
2023-01-23T04:49:38.949Z,1.14
2023-01-23T04:52:07.565Z,1.06
2023-01-23T04:54:39.760Z,0.98
2023-01-23T04:57:08.482Z,1.01
2023-01-23T04:59:37.169Z,1.07
2023-01-23T05:02:05.719Z,1.07
2023-01-23T05:04:41.795Z,0.90
2023-01-23T05:07:12.205Z,0.87
2023-01-23T05:09:44.990Z,0.71
2023-01-23T05:12:16.479Z,0.81
2023-01-23T05:14:45.023Z,0.87
2023-01-23T05:17:13.575Z,0.95
2023-01-23T05:19:48.715Z,1.08
2023-01-23T05:22:18.015Z,1.16
2023-01-23T05:24:47.258Z,1.06
2023-01-23T05:27:15.855Z,1.03
2023-01-23T05:29:46.588Z,1.07
2023-01-23T05:32:25.083Z,1.16
2023-01-23T05:35:10.992Z,1.31
2023-01-23T05:37:40.977Z,1.17
2023-01-23T05:40:14.308Z,1.26
2023-01-23T05:43:02.593Z,1.19
2023-01-23T05:45:37.425Z,1.35
2023-01-23T05:48:12.533Z,1.25
2023-01-23T05:50:42.849Z,1.35
2023-01-23T05:53:11.490Z,1.22
2023-01-23T05:55:40.148Z,1.22
2023-01-23T05:58:10.324Z,1.02
2023-01-23T06:00:57.233Z,1.05
2023-01-23T06:03:44.763Z,1.07
2023-01-23T06:06:33.575Z,1.15
2023-01-23T06:09:02.328Z,1.01
2023-01-23T06:11:31.731Z,0.81
2023-01-23T06:14:00.388Z,0.83
2023-01-23T06:16:28.982Z,0.83
2023-01-23T06:18:58.438Z,0.81
2023-01-23T06:21:29.635Z,0.80
2023-01-23T06:24:00.346Z,0.66
2023-01-23T06:26:29.817Z,0.74
2023-01-23T06:28:59.010Z,0.93
2023-01-23T06:31:27.581Z,0.74
2023-01-23T06:34:00.571Z,0.79
2023-01-23T06:36:40.171Z,0.84
2023-01-23T06:39:13.438Z,0.93
2023-01-23T06:41:43.900Z,0.87
2023-01-23T06:44:18.401Z,0.90
2023-01-23T06:46:47.084Z,0.88
2023-01-23T06:49:15.514Z,0.78
2023-01-23T06:51:44.167Z,0.79
2023-01-23T06:54:15.822Z,0.76
2023-01-23T06:56:45.416Z,0.82
2023-01-23T06:59:14.272Z,0.84
2023-01-23T07:01:43.854Z,0.68
2023-01-23T07:04:35.728Z,0.88
2023-01-23T07:07:04.797Z,0.90
2023-01-23T07:09:36.071Z,0.86
2023-01-23T07:12:22.075Z,0.96
2023-01-23T07:14:51.366Z,1.01
2023-01-23T07:17:36.174Z,0.95
2023-01-23T07:20:05.289Z,0.77
2023-01-23T07:22:35.239Z,0.94
2023-01-23T07:25:06.368Z,1.00
2023-01-23T07:27:34.948Z,1.07
2023-01-23T07:30:03.809Z,1.02
2023-01-23T07:32:32.434Z,1.18
2023-01-23T07:35:00.877Z,1.16
2023-01-23T07:37:29.145Z,0.97
2023-01-23T07:39:57.509Z,1.13
2023-01-23T07:42:27.414Z,1.07
2023-01-23T07:44:55.844Z,1.05
2023-01-23T07:47:24.678Z,1.16
2023-01-23T07:49:53.287Z,1.13
2023-01-23T07:52:21.540Z,1.05
2023-01-23T07:54:49.966Z,0.98
2023-01-23T07:57:18.248Z,1.10
2023-01-23T07:59:49.290Z,1.12
2023-01-23T08:02:17.679Z,1.24
2023-01-23T08:04:46.431Z,1.30
2023-01-23T08:07:15.133Z,1.29
2023-01-23T08:09:43.806Z,1.28
2023-01-23T08:12:13.533Z,1.37
2023-01-23T08:14:42.017Z,1.23
2023-01-23T08:17:11.644Z,1.15
2023-01-23T08:19:40.180Z,1.22
2023-01-23T08:22:08.978Z,1.20
2023-01-23T08:24:37.549Z,1.12
2023-01-23T08:27:06.118Z,1.02
2023-01-23T08:29:34.665Z,1.05
2023-01-23T08:32:03.547Z,1.15
2023-01-23T08:34:33.570Z,1.11
2023-01-23T08:37:02.003Z,1.06
2023-01-23T08:39:30.386Z,1.30
2023-01-23T08:41:58.912Z,1.44
2023-01-23T08:44:27.601Z,1.41
2023-01-23T08:46:55.891Z,1.31
2023-01-23T08:49:24.902Z,1.32
2023-01-23T08:51:54.831Z,1.43
2023-01-23T08:54:23.210Z,1.46
2023-01-23T08:56:51.603Z,1.51
2023-01-23T08:59:19.865Z,1.53
2023-01-23T09:01:48.413Z,1.75
2023-01-23T09:04:17.525Z,1.60
2023-01-23T09:06:46.248Z,1.65
2023-01-23T09:09:16.212Z,1.43
2023-01-23T09:11:46.647Z,1.43
2023-01-23T09:14:16.939Z,1.67
2023-01-23T09:16:45.320Z,1.72
2023-01-23T09:19:13.819Z,1.71
2023-01-23T09:21:42.587Z,1.49
2023-01-23T09:24:11.481Z,1.61
2023-01-23T09:26:41.671Z,1.65
2023-01-23T09:29:09.960Z,1.75
2023-01-23T09:31:38.640Z,1.64
2023-01-23T09:34:07.917Z,1.58
2023-01-23T09:36:42.868Z,1.79
2023-01-23T09:39:12.326Z,1.64
2023-01-23T09:41:44.975Z,1.58
2023-01-23T09:44:17.855Z,1.93
2023-01-23T09:46:51.547Z,1.87
2023-01-23T09:49:26.813Z,1.78
2023-01-23T09:52:00.883Z,2.06
2023-01-23T09:54:43.330Z,1.91
2023-01-23T09:57:22.501Z,2.03
2023-01-23T10:00:00.473Z,2.24
2023-01-23T10:02:30.066Z,2.03
2023-01-23T10:04:59.659Z,2.20
2023-01-23T10:07:46.509Z,2.25
2023-01-23T10:10:52.754Z,2.13
2023-01-23T10:13:36.790Z,2.35
2023-01-23T10:16:35.380Z,2.34
2023-01-23T10:19:29.332Z,2.28
2023-01-23T10:22:05.438Z,2.53
2023-01-23T10:24:46.584Z,2.43
2023-01-23T10:27:32.423Z,2.22
2023-01-23T10:30:06.751Z,2.12
2023-01-23T10:32:47.769Z,2.31
2023-01-23T10:35:21.467Z,2.39
2023-01-23T10:37:56.272Z,2.36
2023-01-23T10:40:40.023Z,2.17
2023-01-23T10:43:15.784Z,2.10
2023-01-23T10:45:47.454Z,1.85
2023-01-23T10:48:48.764Z,1.76
2023-01-23T10:51:47.709Z,1.82
2023-01-23T10:54:31.771Z,1.70
2023-01-23T10:57:19.995Z,1.79
2023-01-23T10:59:57.202Z,1.79
2023-01-23T11:02:32.725Z,1.70
2023-01-23T11:05:03.093Z,1.73
2023-01-23T11:07:33.509Z,1.77
2023-01-23T11:10:17.050Z,1.87
2023-01-23T11:12:50.072Z,1.95
2023-01-23T11:15:24.504Z,2.07
2023-01-23T11:17:56.842Z,1.93
2023-01-23T11:20:29.852Z,1.97
2023-01-23T11:23:08.420Z,1.99
2023-01-23T11:25:40.415Z,1.95
2023-01-23T11:28:23.707Z,1.87
2023-01-23T11:31:13.868Z,1.94
2023-01-23T11:33:56.395Z,1.95
2023-01-23T11:36:52.958Z,2.09
2023-01-23T11:39:38.960Z,2.16
2023-01-23T11:42:11.183Z,2.15
2023-01-23T11:44:46.496Z,2.39
2023-01-23T11:47:50.733Z,2.41
2023-01-23T11:50:49.996Z,2.69
2023-01-23T11:53:42.295Z,2.70
2023-01-23T11:56:43.867Z,2.57
2023-01-23T11:59:56.819Z,2.48
2023-01-23T12:02:58.039Z,2.37
2023-01-23T12:05:52.324Z,2.27
2023-01-23T12:08:32.738Z,2.28
2023-01-23T12:11:14.151Z,2.22
2023-01-23T12:13:59.857Z,2.25
2023-01-23T12:16:50.779Z,2.32
2023-01-23T12:19:34.149Z,2.20
2023-01-23T12:22:16.960Z,2.33
2023-01-23T12:25:04.119Z,2.55
2023-01-23T12:27:43.982Z,2.79
2023-01-23T12:30:44.260Z,2.72
2023-01-23T12:33:40.380Z,2.37
2023-01-23T12:36:30.135Z,2.54
2023-01-23T12:39:10.703Z,2.46
2023-01-23T12:41:44.009Z,2.52
2023-01-23T12:44:18.277Z,2.55
2023-01-23T12:46:57.221Z,2.66
2023-01-23T12:49:30.273Z,2.71
2023-01-23T12:52:04.553Z,2.59
2023-01-23T12:54:43.350Z,2.86
2023-01-23T12:57:14.129Z,2.78
2023-01-23T13:00:02.250Z,2.92
2023-01-23T13:02:41.605Z,3.05
2023-01-23T13:05:20.954Z,3.03
2023-01-23T13:08:01.602Z,3.26
2023-01-23T13:11:17.645Z,2.66
2023-01-23T13:13:48.003Z,2.91
2023-01-23T13:16:20.213Z,2.86
2023-01-23T13:19:13.729Z,2.83
2023-01-23T13:22:03.020Z,2.92
2023-01-23T13:25:03.829Z,2.86
2023-01-23T13:27:47.367Z,3.04
2023-01-23T13:30:41.165Z,2.94
2023-01-23T13:33:55.269Z,2.70
2023-01-23T13:36:39.582Z,2.70
2023-01-23T13:39:29.038Z,2.78
2023-01-23T13:42:36.613Z,2.42
2023-01-23T13:45:35.837Z,2.44
2023-01-23T14:20:39.525Z,2.22
2023-01-23T14:23:21.866Z,2.29
2023-01-23T14:25:50.467Z,2.48
2023-01-23T14:28:20.231Z,2.54
2023-01-23T14:31:00.719Z,2.52
2023-01-23T14:33:40.063Z,2.44
2023-01-23T14:36:17.369Z,2.20
2023-01-23T14:38:47.870Z,2.28
2023-01-23T14:41:19.113Z,2.22
2023-01-23T14:43:48.079Z,2.26
2023-01-23T14:46:21.017Z,2.33
2023-01-23T14:48:54.719Z,2.34
2023-01-23T14:51:27.916Z,2.25
2023-01-23T14:53:59.304Z,2.43
2023-01-23T14:56:33.106Z,2.31
2023-01-23T14:59:04.813Z,2.34
2023-01-23T15:01:35.771Z,2.21
2023-01-23T15:04:07.124Z,2.25
2023-01-23T15:06:37.520Z,2.12
2023-01-23T15:09:15.612Z,2.02
2023-01-23T15:11:45.221Z,2.00
2023-01-23T15:14:36.591Z,1.93
2023-01-23T15:17:07.780Z,1.95
2023-01-23T15:19:38.837Z,1.83
2023-01-23T15:22:20.329Z,1.86
2023-01-23T15:24:49.261Z,1.81
2023-01-23T15:27:32.329Z,1.79
2023-01-23T15:30:48.570Z,1.80
2023-01-23T15:33:28.572Z,1.77
2023-01-23T15:36:06.786Z,1.87
2023-01-23T15:38:37.260Z,1.81
2023-01-23T15:41:11.358Z,1.86
2023-01-23T15:43:40.035Z,1.91
2023-01-23T15:46:12.010Z,1.84
2023-01-23T15:48:40.655Z,1.88
2023-01-23T15:51:12.631Z,1.85
2023-01-23T15:53:42.544Z,1.83
2023-01-23T15:56:29.394Z,1.87
2023-01-23T15:58:59.144Z,1.94
2023-01-23T16:01:28.007Z,1.93
2023-01-23T16:03:56.561Z,1.99
2023-01-23T16:06:26.396Z,1.93
2023-01-23T16:09:05.105Z,1.97
2023-01-23T16:11:38.655Z,2.05
2023-01-23T16:14:07.452Z,2.04
2023-01-23T16:16:35.874Z,1.94
2023-01-23T16:19:04.547Z,2.05
2023-01-23T16:21:33.310Z,2.04
2023-01-23T16:24:05.273Z,2.01
2023-01-23T16:26:35.204Z,1.89
2023-01-23T16:29:14.133Z,1.78
2023-01-23T16:31:42.931Z,1.81
2023-01-23T16:34:11.168Z,1.81
2023-01-23T16:36:39.519Z,1.80
2023-01-23T16:39:16.864Z,1.88
2023-01-23T16:41:45.604Z,1.78
2023-01-23T16:44:18.442Z,1.83
2023-01-23T16:46:47.403Z,1.82
2023-01-23T16:49:17.390Z,1.81
2023-01-23T16:51:55.715Z,1.73
2023-01-23T16:54:26.388Z,1.75
2023-01-23T16:56:57.128Z,1.64
2023-01-23T16:59:34.366Z,1.69
2023-01-23T17:02:13.779Z,1.67
2023-01-23T17:04:42.372Z,1.74
2023-01-23T17:07:15.360Z,1.79
2023-01-23T17:09:45.173Z,1.83
2023-01-23T17:12:17.998Z,1.71
2023-01-23T17:14:49.000Z,1.82
2023-01-23T17:17:26.152Z,1.81
2023-01-23T17:19:55.190Z,1.80
2023-01-23T17:22:27.720Z,1.84
2023-01-23T17:24:57.427Z,1.83
2023-01-23T17:27:25.807Z,1.76
2023-01-23T17:29:54.337Z,1.85
2023-01-23T17:32:30.456Z,1.84
2023-01-23T17:35:01.716Z,1.82
2023-01-23T17:37:31.902Z,1.69
2023-01-23T17:40:02.082Z,1.73
2023-01-23T17:42:30.927Z,1.75
2023-01-23T17:44:59.592Z,1.66
2023-01-23T17:47:28.225Z,1.68
2023-01-23T17:49:57.262Z,1.72
2023-01-23T17:52:27.089Z,1.72
2023-01-23T17:54:55.367Z,1.67
2023-01-23T17:57:25.281Z,1.67
2023-01-23T17:59:56.378Z,1.69
2023-01-23T18:02:30.092Z,1.73
2023-01-23T18:04:58.632Z,1.79
2023-01-23T18:07:27.425Z,1.84
2023-01-23T18:09:56.305Z,1.81
2023-01-23T18:12:37.486Z,1.79
2023-01-23T18:15:17.727Z,1.74
2023-01-23T18:17:55.986Z,1.71
2023-01-23T18:20:25.888Z,1.78
2023-01-23T18:22:55.745Z,1.64
2023-01-23T18:25:27.256Z,1.71
2023-01-23T18:28:01.634Z,1.67
2023-01-23T18:30:45.495Z,1.70
2023-01-23T18:33:36.227Z,1.75
2023-01-23T18:36:33.460Z,1.76
2023-01-23T18:39:26.703Z,1.76
2023-01-23T18:42:15.832Z,1.67
2023-01-23T18:44:53.647Z,1.72
2023-01-23T18:47:22.422Z,1.69
2023-01-23T18:49:51.447Z,1.67
2023-01-23T18:52:26.258Z,1.74
2023-01-23T18:55:03.752Z,1.75
2023-01-23T18:57:54.271Z,1.67
2023-01-23T19:00:35.536Z,1.70
2023-01-23T19:03:13.574Z,1.65
2023-01-23T19:05:43.135Z,1.56
2023-01-23T19:08:27.947Z,1.60
2023-01-23T19:11:02.039Z,1.62
2023-01-23T19:13:40.586Z,1.57
2023-01-23T19:16:16.854Z,1.65
2023-01-23T19:18:48.648Z,1.61
2023-01-23T19:21:23.468Z,1.73
2023-01-23T19:23:59.536Z,1.68
2023-01-23T19:26:30.809Z,1.68
2023-01-23T19:29:08.367Z,1.70
2023-01-23T19:31:45.331Z,1.62
2023-01-23T19:34:15.985Z,1.67
2023-01-23T19:36:44.419Z,1.60
2023-01-23T19:39:12.964Z,1.51
2023-01-23T19:41:46.773Z,1.61
2023-01-23T19:44:17.603Z,1.65
2023-01-23T19:46:47.869Z,1.62
2023-01-23T19:49:16.644Z,1.65
2023-01-23T19:51:45.299Z,1.62
2023-01-23T19:54:16.484Z,1.70
2023-01-23T19:56:45.264Z,1.69
2023-01-23T19:59:13.771Z,1.59
2023-01-23T20:01:46.759Z,1.62
2023-01-23T20:04:20.537Z,1.60
2023-01-23T20:06:51.764Z,1.69
2023-01-23T20:09:20.811Z,1.81
2023-01-23T20:11:49.600Z,1.74
2023-01-23T20:14:21.463Z,1.76
2023-01-23T20:16:49.807Z,1.88
2023-01-23T20:19:19.997Z,1.93
2023-01-23T20:21:48.798Z,1.87
2023-01-23T20:24:17.963Z,1.85
2023-01-23T20:26:47.675Z,1.72
2023-01-23T20:29:16.058Z,1.80
2023-01-23T20:31:46.600Z,1.69
2023-01-23T20:34:14.915Z,1.64
2023-01-23T20:36:45.090Z,1.75
2023-01-23T20:39:14.234Z,1.62
2023-01-23T20:41:43.130Z,1.65
2023-01-23T20:44:11.836Z,1.83
2023-01-23T20:46:40.619Z,1.81
2023-01-23T20:49:09.196Z,1.74
2023-01-23T20:51:37.776Z,1.75
2023-01-23T20:54:08.319Z,1.83
2023-01-23T20:56:36.848Z,1.69
2023-01-23T20:59:21.376Z,1.58
2023-01-23T21:02:07.499Z,1.69
2023-01-23T21:04:38.376Z,1.76
2023-01-23T21:07:06.976Z,1.66
2023-01-23T21:09:36.693Z,1.51
2023-01-23T21:12:05.780Z,1.58
2023-01-23T21:14:35.340Z,1.56
2023-01-23T21:17:05.532Z,1.45
2023-01-23T21:19:34.891Z,1.46
2023-01-23T21:22:06.122Z,1.52
2023-01-23T21:24:37.804Z,1.58
2023-01-23T21:27:08.005Z,1.61
2023-01-23T21:29:37.369Z,1.63
2023-01-23T21:32:05.731Z,1.65
2023-01-23T21:34:34.506Z,1.73
2023-01-23T21:37:03.820Z,1.61
2023-01-23T21:39:32.321Z,1.67
2023-01-23T21:42:02.240Z,1.58
2023-01-23T21:44:30.810Z,1.65
2023-01-23T21:46:59.582Z,1.45
2023-01-23T21:49:28.296Z,1.49
2023-01-23T21:51:56.834Z,1.60
2023-01-23T21:54:26.567Z,1.58
2023-01-23T21:56:55.546Z,1.54
2023-01-23T21:59:25.369Z,1.55
2023-01-23T22:01:52.922Z,1.64
2023-01-23T22:04:23.077Z,1.70
2023-01-23T22:06:55.416Z,1.61
2023-01-23T22:09:26.388Z,1.53
2023-01-23T22:11:56.085Z,1.52
2023-01-23T22:14:26.232Z,1.54
2023-01-23T22:16:54.857Z,1.53
2023-01-23T22:19:25.574Z,1.46
2023-01-23T22:21:55.002Z,1.50
2023-01-23T22:24:23.713Z,1.53
2023-01-23T22:26:52.281Z,1.60
2023-01-23T22:29:22.681Z,1.52
2023-01-23T22:31:52.812Z,1.58
2023-01-23T22:34:21.627Z,1.55
2023-01-23T22:36:50.341Z,1.59
2023-01-23T22:39:19.692Z,1.55
2023-01-23T22:41:50.057Z,1.56
2023-01-23T22:44:19.253Z,1.56
2023-01-23T22:46:47.876Z,1.55
2023-01-23T22:49:17.702Z,1.45
2023-01-23T22:51:46.442Z,1.46
2023-01-23T22:54:15.498Z,1.53
2023-01-23T22:56:44.458Z,1.57
2023-01-23T22:59:13.153Z,1.58
2023-01-23T23:01:41.668Z,1.57
2023-01-23T23:04:11.082Z,1.51
2023-01-23T23:06:41.226Z,1.64
2023-01-23T23:09:10.753Z,1.56
2023-01-23T23:11:41.515Z,1.66
2023-01-23T23:14:11.847Z,1.60
2023-01-23T23:16:41.145Z,1.52
2023-01-23T23:19:11.136Z,1.63
2023-01-23T23:21:41.580Z,1.71
2023-01-23T23:24:13.877Z,1.74
2023-01-23T23:26:42.718Z,1.74
2023-01-23T23:29:11.265Z,1.80
2023-01-23T23:31:40.094Z,1.72
2023-01-23T23:34:09.146Z,1.71
2023-01-23T23:36:37.709Z,1.73
2023-01-23T23:39:07.888Z,1.67
2023-01-23T23:41:36.287Z,1.84
2023-01-23T23:44:05.002Z,1.95
2023-01-23T23:46:33.497Z,1.78
2023-01-23T23:49:01.802Z,1.66
2023-01-23T23:51:30.435Z,1.86
2023-01-23T23:53:58.734Z,1.85
2023-01-23T23:56:32.256Z,1.67
2023-01-23T23:59:00.715Z,1.74
